International Virtual Aviation Organisation

Eastern Europe and Northern Asia MCD

 
UOOO 200930Z 04009MPS CAVOK M16/M19 Q1016 R01/35//50 NOSIG RMK QFE748/0997
QNH:(hPa/inHg/mmHg)1016 / 30 / 762
QFE:(hPa/inHg/mmHg)995 / 29.37 / 746
Temperature-16
Dew Point-19
Visibility> 10000
WeatherCAVOK
Cloud Cover
Transition Height1200 m./4600 ft.
Transition LevelFL60
SQUAWK